createdAt,value
2023-05-17T00:01:00.692Z,99.90
2023-05-17T00:03:27.556Z,99.90
2023-05-17T00:05:54.450Z,99.90
2023-05-17T00:08:21.459Z,99.90
2023-05-17T00:10:48.369Z,99.90
2023-05-17T00:13:15.241Z,99.90
2023-05-17T00:15:42.096Z,99.90
2023-05-17T00:18:09.147Z,99.90
2023-05-17T00:20:36.588Z,99.90
2023-05-17T00:23:04.106Z,99.90
2023-05-17T00:25:31.276Z,99.90
2023-05-17T00:27:58.442Z,99.90
2023-05-17T00:30:25.322Z,99.90
2023-05-17T00:32:52.531Z,99.90
2023-05-17T00:35:19.509Z,99.90
2023-05-17T00:37:48.012Z,99.90
2023-05-17T00:40:16.229Z,99.90
2023-05-17T00:42:43.271Z,99.90
2023-05-17T00:45:10.850Z,99.90
2023-05-17T00:47:37.914Z,99.90
2023-05-17T00:50:06.285Z,99.90
2023-05-17T00:52:33.566Z,99.90
2023-05-17T00:55:00.685Z,99.90
2023-05-17T00:57:29.218Z,99.90
2023-05-17T00:59:56.623Z,99.90
2023-05-17T01:02:23.762Z,99.90
2023-05-17T01:04:51.029Z,99.90
2023-05-17T01:07:18.256Z,99.90
2023-05-17T01:09:45.964Z,99.90
2023-05-17T01:12:12.909Z,99.90
2023-05-17T01:14:58.356Z,99.90
2023-05-17T01:17:35.913Z,99.90
2023-05-17T01:20:16.665Z,99.90
2023-05-17T01:23:08.494Z,99.90
2023-05-17T01:25:41.957Z,99.90
2023-05-17T01:28:11.433Z,99.90
2023-05-17T01:30:39.587Z,99.90
2023-05-17T01:33:07.645Z,99.90
2023-05-17T01:35:34.703Z,99.90
2023-05-17T01:38:01.692Z,99.90
2023-05-17T01:40:29.589Z,99.90
2023-05-17T01:43:17.589Z,99.90
2023-05-17T01:45:51.358Z,99.90
2023-05-17T01:48:26.202Z,99.90
2023-05-17T01:50:56.151Z,99.90
2023-05-17T01:53:38.777Z,99.90
2023-05-17T01:56:15.841Z,99.90
2023-05-17T01:58:48.532Z,99.90
2023-05-17T02:01:18.560Z,99.90
2023-05-17T02:03:51.270Z,99.90
2023-05-17T02:06:18.253Z,99.90
2023-05-17T02:08:45.259Z,99.90
2023-05-17T02:11:12.223Z,99.90
2023-05-17T02:13:39.111Z,99.90
2023-05-17T02:16:06.495Z,99.90
2023-05-17T02:18:35.572Z,99.90
2023-05-17T02:21:02.708Z,99.90
2023-05-17T02:23:29.636Z,99.90
2023-05-17T02:25:56.566Z,99.90
2023-05-17T02:28:23.442Z,99.90
2023-05-17T02:30:50.388Z,99.90
2023-05-17T02:33:17.430Z,99.90
2023-05-17T02:35:44.408Z,99.90
2023-05-17T02:38:11.327Z,99.90
2023-05-17T02:40:41.597Z,99.90
2023-05-17T02:43:08.482Z,99.90
2023-05-17T02:45:35.455Z,99.90
2023-05-17T02:48:02.368Z,99.90
2023-05-17T02:50:29.285Z,99.90
2023-05-17T02:52:56.138Z,99.90
2023-05-17T02:55:23.085Z,99.90
2023-05-17T02:57:49.981Z,99.90
2023-05-17T03:00:17.413Z,99.90
2023-05-17T03:02:44.429Z,99.90
2023-05-17T03:05:11.438Z,99.90
2023-05-17T03:07:38.795Z,99.90
2023-05-17T03:10:06.980Z,99.90
2023-05-17T03:12:33.927Z,99.90
2023-05-17T03:15:00.948Z,99.90
2023-05-17T03:17:28.054Z,99.90
2023-05-17T03:19:55.337Z,99.90
2023-05-17T03:22:22.486Z,99.90
2023-05-17T03:24:49.428Z,99.90
2023-05-17T03:27:16.828Z,99.90
2023-05-17T03:29:43.774Z,99.90
2023-05-17T03:32:10.768Z,99.90
2023-05-17T03:34:37.668Z,99.90
2023-05-17T03:37:04.696Z,99.90
2023-05-17T03:39:31.629Z,99.90
2023-05-17T03:41:58.644Z,99.90
2023-05-17T03:44:25.813Z,99.90
2023-05-17T03:46:52.890Z,99.90
2023-05-17T03:49:19.831Z,99.90
2023-05-17T03:51:46.747Z,99.90
2023-05-17T03:54:13.688Z,99.90
2023-05-17T03:56:40.636Z,99.90
2023-05-17T03:59:07.568Z,99.90
2023-05-17T04:01:34.560Z,99.90
2023-05-17T04:04:04.468Z,99.90
2023-05-17T04:06:31.951Z,99.90
2023-05-17T04:08:59.844Z,99.90
2023-05-17T04:11:27.702Z,99.90
2023-05-17T04:13:55.089Z,99.90
2023-05-17T04:16:22.213Z,99.90
2023-05-17T04:18:52.725Z,99.90
2023-05-17T04:21:20.102Z,99.90
2023-05-17T04:23:47.013Z,99.90
2023-05-17T04:26:14.988Z,99.90
2023-05-17T04:28:41.887Z,99.90
2023-05-17T04:31:08.936Z,99.90
2023-05-17T04:33:37.006Z,99.90
2023-05-17T04:36:04.148Z,99.90
2023-05-17T04:38:31.331Z,99.90
2023-05-17T04:41:05.487Z,99.90
2023-05-17T04:43:33.122Z,99.90
2023-05-17T04:46:00.888Z,99.90
2023-05-17T04:48:31.048Z,99.90
2023-05-17T04:51:01.511Z,99.90
2023-05-17T04:53:28.428Z,99.90
2023-05-17T04:55:55.347Z,99.90
2023-05-17T04:58:24.191Z,99.90
2023-05-17T05:00:52.520Z,99.90
2023-05-17T05:03:19.797Z,99.90
2023-05-17T05:05:46.746Z,99.90
2023-05-17T05:08:13.674Z,99.90
2023-05-17T05:10:40.647Z,99.90
2023-05-17T05:13:08.503Z,99.90
2023-05-17T05:15:40.778Z,99.90
2023-05-17T05:18:08.027Z,99.90
2023-05-17T05:20:35.039Z,99.90
2023-05-17T05:23:03.763Z,99.90
2023-05-17T05:25:30.898Z,99.90
2023-05-17T05:27:58.546Z,99.90
2023-05-17T05:30:25.675Z,99.90
2023-05-17T05:32:53.142Z,99.90
2023-05-17T05:35:20.717Z,99.90
2023-05-17T05:37:47.671Z,99.90
2023-05-17T05:40:15.190Z,99.90
2023-05-17T05:42:42.212Z,99.90
2023-05-17T05:45:10.686Z,99.90
2023-05-17T05:47:37.699Z,99.90
2023-05-17T05:50:06.328Z,99.90
2023-05-17T05:52:33.287Z,99.90
2023-05-17T05:55:00.531Z,99.90
2023-05-17T05:57:27.517Z,99.90
2023-05-17T05:59:54.496Z,99.90
2023-05-17T06:02:21.467Z,99.90
2023-05-17T06:04:48.727Z,99.90
2023-05-17T06:07:15.848Z,99.90
2023-05-17T06:09:44.105Z,99.90
2023-05-17T06:12:11.434Z,99.90
2023-05-17T06:14:38.713Z,99.90
2023-05-17T06:17:05.778Z,99.90
2023-05-17T06:19:32.915Z,99.90
2023-05-17T06:21:59.979Z,99.10
2023-05-17T06:24:27.039Z,99.40
2023-05-17T06:26:54.122Z,99.50
2023-05-17T06:29:23.549Z,96.80
2023-05-17T06:31:50.602Z,95.40
2023-05-17T06:34:17.593Z,93.60
2023-05-17T06:36:46.103Z,94.70
2023-05-17T06:39:13.099Z,94.60
2023-05-17T06:41:39.986Z,92.20
2023-05-17T06:44:08.665Z,91.00
2023-05-17T06:46:37.076Z,91.20
2023-05-17T06:49:04.235Z,91.70
2023-05-17T06:51:32.234Z,92.30
2023-05-17T06:53:59.125Z,92.20
2023-05-17T06:56:26.648Z,91.30
2023-05-17T06:58:54.715Z,87.60
2023-05-17T07:01:21.697Z,79.70
2023-05-17T07:03:49.312Z,78.80
2023-05-17T07:06:18.484Z,78.60
2023-05-17T07:08:48.392Z,74.10
2023-05-17T07:11:15.388Z,75.40
2023-05-17T07:13:42.464Z,74.30
2023-05-17T07:16:09.418Z,74.60
2023-05-17T07:18:36.600Z,71.40
2023-05-17T07:21:03.881Z,72.00
2023-05-17T07:23:30.770Z,72.10
2023-05-17T07:25:57.742Z,72.90
2023-05-17T07:28:25.308Z,74.10
2023-05-17T07:30:52.421Z,77.20
2023-05-17T07:33:19.309Z,78.10
2023-05-17T07:35:47.404Z,81.80
2023-05-17T07:38:14.293Z,84.50
2023-05-17T07:40:41.295Z,79.10
2023-05-17T07:43:11.810Z,79.80
2023-05-17T07:45:38.753Z,81.90
2023-05-17T07:48:05.992Z,80.10
2023-05-17T07:50:33.194Z,79.80
2023-05-17T07:53:00.153Z,82.10
2023-05-17T07:55:28.881Z,82.10
2023-05-17T07:57:59.619Z,79.60
2023-05-17T08:00:26.747Z,82.30
2023-05-17T08:02:53.689Z,84.30
2023-05-17T08:05:21.295Z,86.30
2023-05-17T08:07:48.338Z,87.10
2023-05-17T08:10:15.351Z,89.50
2023-05-17T08:12:42.455Z,90.60
2023-05-17T08:15:09.786Z,86.70
2023-05-17T08:17:36.895Z,86.80
2023-05-17T08:20:06.436Z,89.30
2023-05-17T08:22:33.549Z,87.80
2023-05-17T08:25:00.815Z,85.80
2023-05-17T08:27:27.862Z,88.70
2023-05-17T08:29:55.602Z,86.70
2023-05-17T08:32:26.300Z,85.50
2023-05-17T08:34:53.410Z,85.20
2023-05-17T08:37:20.421Z,83.40
2023-05-17T08:39:49.273Z,83.00
2023-05-17T08:42:22.526Z,82.90
2023-05-17T08:44:49.979Z,85.90
2023-05-17T08:47:26.028Z,84.30
2023-05-17T08:49:55.924Z,85.00
2023-05-17T08:52:22.904Z,83.40
2023-05-17T08:54:49.880Z,83.90
2023-05-17T08:57:20.758Z,86.20
2023-05-17T08:59:48.104Z,85.90
2023-05-17T09:02:16.034Z,88.10
2023-05-17T09:04:43.837Z,88.40
2023-05-17T09:07:11.401Z,86.10
2023-05-17T09:09:38.513Z,85.50
2023-05-17T09:12:05.854Z,86.50
2023-05-17T09:14:36.976Z,84.30
2023-05-17T09:17:04.843Z,84.80
2023-05-17T09:19:36.361Z,84.90
2023-05-17T09:22:05.101Z,78.50
2023-05-17T09:24:32.118Z,80.60
2023-05-17T09:27:03.703Z,80.60
2023-05-17T09:29:39.034Z,79.30
2023-05-17T09:32:14.093Z,78.30
2023-05-17T09:34:42.019Z,82.00
2023-05-17T09:37:16.912Z,79.30
2023-05-17T09:39:46.149Z,79.20
2023-05-17T09:42:16.968Z,84.00
2023-05-17T09:44:53.340Z,77.80
2023-05-17T09:47:28.530Z,81.40
2023-05-17T09:50:02.683Z,78.90
2023-05-17T09:52:32.766Z,79.30
2023-05-17T09:55:01.755Z,78.50
2023-05-17T09:57:37.030Z,75.00
2023-05-17T10:00:09.616Z,73.80
2023-05-17T10:02:41.791Z,75.80
2023-05-17T10:05:12.428Z,78.60
2023-05-17T10:07:41.754Z,79.00
2023-05-17T10:10:09.688Z,79.00
2023-05-17T10:12:39.816Z,79.80
2023-05-17T10:15:08.441Z,80.30
2023-05-17T10:17:36.023Z,82.50
2023-05-17T10:20:12.262Z,80.00
2023-05-17T10:22:40.156Z,77.40
2023-05-17T10:25:08.133Z,77.90
2023-05-17T10:27:35.236Z,75.60
2023-05-17T10:30:02.785Z,74.80
2023-05-17T10:32:30.973Z,78.20
2023-05-17T10:35:10.241Z,76.00
2023-05-17T10:37:40.308Z,74.70
2023-05-17T10:40:14.738Z,75.60
2023-05-17T10:42:45.193Z,77.80
2023-05-17T10:45:13.120Z,75.00
2023-05-17T10:47:43.697Z,76.70
2023-05-17T10:50:13.280Z,76.00
2023-05-17T10:52:47.664Z,76.20
2023-05-17T10:55:19.221Z,77.10
2023-05-17T10:58:09.059Z,74.90
2023-05-17T11:00:47.459Z,76.20
2023-05-17T11:03:17.480Z,73.80
2023-05-17T11:06:12.418Z,71.90
2023-05-17T11:09:06.072Z,75.30
2023-05-17T11:11:35.552Z,77.40
2023-05-17T11:14:04.722Z,74.50
2023-05-17T11:16:37.054Z,76.30
2023-05-17T11:19:09.230Z,72.90
2023-05-17T11:21:36.474Z,73.80
2023-05-17T11:24:04.340Z,71.50
2023-05-17T11:26:38.256Z,72.10
2023-05-17T11:29:10.325Z,72.20
2023-05-17T11:31:43.442Z,75.90
2023-05-17T11:34:11.860Z,78.80
2023-05-17T11:36:53.104Z,75.00
2023-05-17T11:39:22.168Z,77.10
2023-05-17T11:41:52.850Z,73.50
2023-05-17T11:44:32.134Z,71.60
2023-05-17T11:47:09.908Z,73.20
2023-05-17T11:49:41.255Z,74.00
2023-05-17T11:52:08.916Z,74.90
2023-05-17T11:54:39.237Z,73.00
2023-05-17T11:57:09.854Z,73.20
2023-05-17T11:59:41.287Z,74.70
2023-05-17T12:02:08.720Z,69.90
2023-05-17T12:04:42.755Z,70.50
2023-05-17T12:07:11.528Z,70.70
2023-05-17T12:09:43.967Z,71.80
2023-05-17T12:12:11.599Z,70.30
2023-05-17T12:14:45.789Z,71.00
2023-05-17T12:17:24.885Z,72.60
2023-05-17T12:19:54.083Z,73.00
2023-05-17T12:22:21.536Z,77.10
2023-05-17T12:24:48.730Z,77.80
2023-05-17T12:27:26.415Z,78.50
2023-05-17T12:29:54.333Z,76.70
2023-05-17T12:32:21.847Z,73.80
2023-05-17T12:34:49.476Z,74.70
2023-05-17T12:37:16.697Z,72.00
2023-05-17T12:39:47.901Z,73.60
2023-05-17T12:42:16.007Z,75.60
2023-05-17T12:44:45.370Z,73.90
2023-05-17T12:47:13.148Z,75.80
2023-05-17T12:49:55.133Z,76.30
2023-05-17T12:52:22.863Z,74.30
2023-05-17T12:54:50.424Z,75.90
2023-05-17T12:57:18.912Z,75.70
2023-05-17T12:59:51.876Z,75.20
2023-05-17T13:02:23.744Z,74.10
2023-05-17T13:04:51.721Z,72.40
2023-05-17T13:07:25.490Z,75.60
2023-05-17T13:09:52.639Z,72.00
2023-05-17T13:12:24.636Z,74.60
2023-05-17T13:14:53.669Z,75.30
2023-05-17T13:17:27.462Z,76.90
2023-05-17T13:19:58.057Z,71.60
2023-05-17T13:22:26.584Z,73.00
2023-05-17T13:24:55.461Z,72.10
2023-05-17T13:27:23.268Z,74.30
2023-05-17T13:29:50.701Z,72.90
2023-05-17T13:32:19.218Z,74.70
2023-05-17T13:34:47.228Z,73.90
2023-05-17T13:37:15.082Z,74.70
2023-05-17T13:39:42.262Z,74.60
2023-05-17T13:42:10.933Z,74.70
2023-05-17T13:44:39.096Z,74.60
2023-05-17T13:47:07.210Z,75.60
2023-05-17T13:49:34.491Z,76.90
2023-05-17T13:52:01.503Z,75.50
2023-05-17T13:54:28.756Z,71.40
2023-05-17T13:56:57.510Z,72.10
2023-05-17T13:59:24.824Z,73.80
2023-05-17T14:01:53.771Z,73.40
2023-05-17T14:04:21.416Z,73.50
2023-05-17T14:06:49.833Z,72.60
2023-05-17T14:09:18.112Z,74.20
2023-05-17T14:11:45.373Z,71.80
2023-05-17T14:14:12.943Z,71.90
2023-05-17T14:16:40.074Z,73.40
2023-05-17T14:19:07.235Z,75.80
2023-05-17T14:21:34.585Z,77.20
2023-05-17T14:24:01.892Z,75.70
2023-05-17T14:26:29.604Z,74.90
2023-05-17T14:28:56.791Z,72.90
2023-05-17T14:31:24.177Z,73.00
2023-05-17T14:33:51.952Z,74.90
2023-05-17T14:36:19.106Z,74.30
2023-05-17T14:38:46.684Z,75.40
2023-05-17T14:41:14.690Z,77.70
2023-05-17T14:43:42.214Z,76.60
2023-05-17T14:46:09.370Z,76.90
2023-05-17T14:48:37.755Z,74.60
2023-05-17T14:51:05.243Z,74.80
2023-05-17T14:53:32.538Z,74.80
2023-05-17T14:56:00.545Z,75.40
2023-05-17T14:58:28.263Z,76.40
2023-05-17T15:01:04.903Z,76.20
2023-05-17T15:03:33.726Z,74.80
2023-05-17T15:06:05.110Z,74.70
2023-05-17T15:08:34.594Z,75.20
2023-05-17T15:11:02.134Z,75.50
2023-05-17T15:13:29.558Z,75.70
2023-05-17T15:15:57.010Z,76.40
2023-05-17T15:18:24.778Z,76.90
2023-05-17T15:20:52.501Z,78.30
2023-05-17T15:23:19.932Z,77.80
2023-05-17T15:25:47.359Z,78.50
2023-05-17T15:28:14.545Z,75.40
2023-05-17T15:30:42.267Z,76.50
2023-05-17T15:33:10.062Z,73.90
2023-05-17T15:35:41.827Z,76.40
2023-05-17T15:38:09.400Z,74.80
2023-05-17T15:40:36.593Z,75.80
2023-05-17T15:43:03.816Z,77.30
2023-05-17T15:45:32.490Z,76.50
2023-05-17T15:48:01.962Z,75.60
2023-05-17T15:50:29.200Z,74.90
2023-05-17T15:52:56.803Z,78.40
2023-05-17T15:55:24.704Z,79.30
2023-05-17T15:57:52.075Z,78.90
2023-05-17T16:00:20.361Z,77.30
2023-05-17T16:02:47.561Z,78.10
2023-05-17T16:05:14.828Z,76.40
2023-05-17T16:07:42.628Z,77.20
2023-05-17T16:10:10.705Z,76.60
2023-05-17T16:12:37.885Z,76.10
2023-05-17T16:15:05.488Z,75.60
2023-05-17T16:17:33.100Z,75.80
2023-05-17T16:20:00.710Z,75.40
2023-05-17T16:22:28.886Z,76.10
2023-05-17T16:24:57.029Z,74.50
2023-05-17T16:27:24.904Z,76.90
2023-05-17T16:29:55.832Z,76.60
2023-05-17T16:32:23.596Z,77.60
2023-05-17T16:34:51.100Z,77.30
2023-05-17T16:37:18.952Z,76.70
2023-05-17T16:39:46.828Z,77.10
2023-05-17T16:42:15.222Z,79.00
2023-05-17T16:44:42.650Z,76.60
2023-05-17T16:47:10.684Z,78.40
2023-05-17T16:49:46.517Z,79.30
2023-05-17T16:52:13.409Z,77.60
2023-05-17T16:54:41.266Z,79.10
2023-05-17T16:57:08.726Z,78.10
2023-05-17T16:59:39.064Z,77.50
2023-05-17T17:02:09.545Z,78.80
2023-05-17T17:04:39.823Z,79.00
2023-05-17T17:07:09.615Z,79.60
2023-05-17T17:09:39.825Z,80.30
2023-05-17T17:12:16.540Z,80.20
2023-05-17T17:14:51.680Z,78.30
2023-05-17T17:17:19.014Z,79.60
2023-05-17T17:19:46.438Z,81.30
2023-05-17T17:22:16.168Z,80.70
2023-05-17T17:24:44.607Z,82.40
2023-05-17T17:27:11.869Z,81.20
2023-05-17T17:29:41.924Z,81.50
2023-05-17T17:32:09.489Z,81.40
2023-05-17T17:34:37.261Z,80.60
2023-05-17T17:37:05.413Z,82.10
2023-05-17T17:39:33.864Z,81.70
2023-05-17T17:42:01.832Z,81.40
2023-05-17T17:44:29.273Z,82.80
2023-05-17T17:46:56.606Z,82.60
2023-05-17T17:49:23.556Z,84.90
2023-05-17T17:51:50.484Z,83.60
2023-05-17T17:54:17.863Z,84.30
2023-05-17T17:56:45.423Z,84.00
2023-05-17T17:59:13.322Z,83.80
2023-05-17T18:01:41.227Z,83.80
2023-05-17T18:04:09.388Z,84.10
2023-05-17T18:06:36.772Z,84.20
2023-05-17T18:09:03.906Z,85.40
2023-05-17T18:11:31.692Z,85.20
2023-05-17T18:13:59.022Z,86.40
2023-05-17T18:16:26.204Z,87.00
2023-05-17T18:18:53.667Z,85.70
2023-05-17T18:21:22.849Z,86.40
2023-05-17T18:23:50.666Z,88.10
2023-05-17T18:26:17.864Z,87.40
2023-05-17T18:28:45.017Z,87.50
2023-05-17T18:31:12.053Z,86.30
2023-05-17T18:33:39.408Z,88.70
2023-05-17T18:36:06.753Z,86.90
2023-05-17T18:38:35.405Z,88.90
2023-05-17T18:41:03.320Z,89.40
2023-05-17T18:43:33.632Z,90.20
2023-05-17T18:46:01.153Z,89.80
2023-05-17T18:48:28.434Z,90.60
2023-05-17T18:50:57.376Z,91.40
2023-05-17T18:53:24.659Z,91.30
2023-05-17T18:55:52.230Z,91.50
2023-05-17T18:58:19.608Z,90.30
2023-05-17T19:00:48.506Z,91.20
2023-05-17T19:03:16.259Z,91.30
2023-05-17T19:05:43.492Z,91.60
2023-05-17T19:08:10.936Z,92.00
2023-05-17T19:10:37.953Z,91.50
2023-05-17T19:13:06.775Z,91.20
2023-05-17T19:15:34.097Z,91.80
2023-05-17T19:18:01.560Z,92.00
2023-05-17T19:20:28.977Z,92.20
2023-05-17T19:22:56.218Z,92.40
2023-05-17T19:25:23.620Z,93.40
2023-05-17T19:27:50.899Z,93.20
2023-05-17T19:30:18.186Z,93.30
2023-05-17T19:32:45.490Z,93.40
2023-05-17T19:35:12.806Z,93.80
2023-05-17T19:37:39.877Z,94.30
2023-05-17T19:40:07.989Z,94.90
2023-05-17T19:42:35.165Z,95.00
2023-05-17T19:45:02.563Z,94.60
2023-05-17T19:47:31.061Z,95.30
2023-05-17T19:53:03.820Z,96.10
2023-05-17T19:55:32.034Z,96.20
2023-05-17T19:57:59.230Z,96.20
2023-05-17T20:00:26.731Z,96.30
2023-05-17T20:02:54.028Z,96.50
2023-05-17T20:05:21.919Z,97.60
2023-05-17T20:07:48.896Z,97.40
2023-05-17T20:10:15.970Z,97.40
2023-05-17T20:12:43.950Z,97.30
2023-05-17T20:15:11.602Z,97.80
2023-05-17T20:17:38.969Z,97.60
2023-05-17T20:20:07.458Z,99.00
2023-05-17T20:22:36.162Z,98.80
2023-05-17T20:25:03.729Z,99.40
2023-05-17T20:27:30.939Z,99.30
2023-05-17T20:30:01.659Z,99.70
2023-05-17T20:32:28.908Z,99.90
2023-05-17T20:34:59.718Z,99.90
2023-05-17T20:37:29.898Z,99.70
2023-05-17T20:40:07.919Z,99.90
2023-05-17T20:42:38.088Z,99.90
2023-05-17T20:45:05.932Z,99.90
2023-05-17T20:47:33.949Z,99.90
2023-05-17T20:50:01.098Z,99.90
2023-05-17T20:52:38.845Z,99.90
2023-05-17T20:55:08.955Z,99.90
2023-05-17T20:57:36.546Z,99.90
2023-05-17T21:00:05.816Z,99.90
2023-05-17T21:02:33.089Z,99.90
2023-05-17T21:05:00.990Z,99.90
2023-05-17T21:07:30.118Z,99.90
2023-05-17T21:09:57.680Z,99.90
2023-05-17T21:12:25.459Z,99.90
2023-05-17T21:15:07.925Z,99.90
2023-05-17T21:17:39.976Z,99.90
2023-05-17T21:20:08.513Z,99.90
2023-05-17T21:22:35.741Z,99.90
2023-05-17T21:25:03.597Z,99.90
2023-05-17T21:27:30.804Z,99.90
2023-05-17T21:29:58.152Z,99.90
2023-05-17T21:32:26.215Z,99.90
2023-05-17T21:34:54.563Z,99.90
2023-05-17T21:37:21.965Z,99.90
2023-05-17T21:39:49.644Z,99.90
2023-05-17T21:42:17.211Z,99.90
2023-05-17T21:44:44.285Z,99.90
2023-05-17T21:47:11.179Z,99.90
2023-05-17T21:49:38.105Z,99.90
2023-05-17T21:52:05.497Z,99.90
2023-05-17T21:54:32.417Z,99.90
2023-05-17T21:56:59.359Z,99.90
2023-05-17T21:59:26.271Z,99.90
2023-05-17T22:01:55.488Z,99.90
2023-05-17T22:04:22.380Z,99.90
2023-05-17T22:06:49.373Z,99.90
2023-05-17T22:09:16.332Z,99.90
2023-05-17T22:11:43.268Z,99.90
2023-05-17T22:14:10.134Z,99.90
2023-05-17T22:16:37.822Z,99.90
2023-05-17T22:19:05.830Z,99.90
2023-05-17T22:21:33.202Z,99.90
2023-05-17T22:24:00.156Z,99.90
2023-05-17T22:26:27.780Z,99.90
2023-05-17T22:28:55.706Z,99.90
2023-05-17T22:31:22.839Z,99.90
2023-05-17T22:33:50.401Z,99.90
2023-05-17T22:36:19.025Z,99.90
2023-05-17T22:38:46.276Z,99.90
2023-05-17T22:41:13.898Z,99.90
2023-05-17T22:43:41.654Z,99.90
2023-05-17T22:46:08.600Z,99.90
2023-05-17T22:48:37.376Z,99.90
2023-05-17T22:51:04.858Z,99.90
2023-05-17T22:53:32.100Z,99.90
2023-05-17T22:55:59.043Z,99.90
2023-05-17T22:58:26.260Z,99.90
2023-05-17T23:00:53.387Z,99.90
2023-05-17T23:03:20.910Z,99.90
2023-05-17T23:05:48.160Z,99.90
2023-05-17T23:08:18.162Z,99.90
2023-05-17T23:10:45.401Z,99.90
2023-05-17T23:13:14.009Z,99.90
2023-05-17T23:15:46.861Z,99.90
2023-05-17T23:18:13.868Z,99.90
2023-05-17T23:20:42.044Z,99.90
2023-05-17T23:23:09.098Z,99.90
2023-05-17T23:25:37.243Z,99.90
2023-05-17T23:28:04.650Z,99.90
2023-05-17T23:30:32.619Z,99.90
2023-05-17T23:33:00.136Z,99.90
2023-05-17T23:35:27.278Z,99.90
2023-05-17T23:37:54.287Z,99.90
2023-05-17T23:40:21.310Z,99.90
2023-05-17T23:42:48.165Z,99.90
2023-05-17T23:45:15.139Z,99.90
2023-05-17T23:47:42.023Z,99.90
2023-05-17T23:50:09.505Z,99.90
2023-05-17T23:52:39.015Z,99.90
2023-05-17T23:55:09.838Z,99.90
2023-05-17T23:57:37.757Z,99.90
